createdAt,value
2019-01-20T00:00:09.620Z,-4.00
2019-01-20T00:02:32.696Z,-4.00
2019-01-20T00:04:53.897Z,-4.00
2019-01-20T00:07:17.280Z,-3.90
2019-01-20T00:09:38.569Z,-3.80
2019-01-20T00:11:59.761Z,-3.80
2019-01-20T00:14:21.208Z,-3.90
2019-01-20T00:16:42.425Z,-4.00
2019-01-20T00:19:03.747Z,-4.00
2019-01-20T00:21:24.965Z,-4.00
2019-01-20T00:23:46.153Z,-4.10
2019-01-20T00:26:07.381Z,-4.20
2019-01-20T00:28:28.577Z,-4.20
2019-01-20T00:30:49.787Z,-4.10
2019-01-20T00:33:10.970Z,-4.20
2019-01-20T00:35:32.194Z,-4.20
2019-01-20T00:37:53.381Z,-4.30
2019-01-20T00:40:15.385Z,-4.10
2019-01-20T00:42:36.577Z,-4.10
2019-01-20T00:45:02.634Z,-4.10
2019-01-20T00:47:20.908Z,-4.20
2019-01-20T00:49:42.118Z,-4.20
2019-01-20T00:52:03.309Z,-4.30
2019-01-20T00:54:24.670Z,-4.30
2019-01-20T00:56:45.869Z,-4.10
2019-01-20T00:59:07.094Z,-4.10
2019-01-20T01:01:28.324Z,-4.30
2019-01-20T01:03:49.571Z,-4.30
2019-01-20T01:06:11.862Z,-4.30
2019-01-20T01:08:33.071Z,-4.20
2019-01-20T01:10:54.542Z,-4.10
2019-01-20T01:13:15.749Z,-4.10
2019-01-20T01:15:36.952Z,-4.10
2019-01-20T01:17:58.170Z,-4.20
2019-01-20T01:20:19.504Z,-4.20
2019-01-20T01:22:40.694Z,-4.10
2019-01-20T01:25:01.909Z,-4.20
2019-01-20T01:27:23.425Z,-4.20
2019-01-20T01:29:44.621Z,-4.00
2019-01-20T01:32:05.837Z,-3.90
2019-01-20T01:34:27.057Z,-3.80
2019-01-20T01:36:48.282Z,-3.80
2019-01-20T01:39:09.468Z,-3.90
2019-01-20T01:41:30.705Z,-3.90
2019-01-20T01:43:51.913Z,-3.80
2019-01-20T01:46:13.128Z,-3.90
2019-01-20T01:48:34.357Z,-3.90
2019-01-20T01:50:55.646Z,-3.90
2019-01-20T01:53:36.705Z,-3.90
2019-01-20T01:55:57.908Z,-3.90
2019-01-20T01:58:19.127Z,-3.90
2019-01-20T02:00:40.383Z,-3.90
2019-01-20T02:03:02.741Z,-3.80
2019-01-20T02:05:23.965Z,-3.90
2019-01-20T02:07:45.215Z,-4.00
2019-01-20T02:10:09.921Z,-4.00
2019-01-20T02:12:31.151Z,-4.10
2019-01-20T02:14:52.344Z,-4.00
2019-01-20T02:17:26.999Z,-4.00
2019-01-20T02:19:48.177Z,-4.10
2019-01-20T02:22:09.377Z,-4.00
2019-01-20T02:24:30.607Z,-3.90
2019-01-20T02:26:51.814Z,-3.70
2019-01-20T02:29:13.017Z,-3.80
2019-01-20T02:31:34.232Z,-3.80
2019-01-20T02:33:55.427Z,-3.70
2019-01-20T02:36:16.665Z,-3.70
2019-01-20T02:38:37.848Z,-3.70
2019-01-20T02:40:59.062Z,-3.70
2019-01-20T02:43:20.249Z,-3.70
2019-01-20T02:45:41.455Z,-3.70
2019-01-20T02:48:02.696Z,-3.60
2019-01-20T02:50:23.873Z,-3.70
2019-01-20T02:52:46.410Z,-3.70
2019-01-20T02:55:07.648Z,-3.60
2019-01-20T02:57:28.853Z,-3.60
2019-01-20T02:59:50.046Z,-3.50
2019-01-20T03:02:11.276Z,-3.40
2019-01-20T03:04:32.461Z,-3.40
2019-01-20T03:06:53.661Z,-3.40
2019-01-20T03:09:14.854Z,-3.50
2019-01-20T03:11:36.228Z,-3.50
2019-01-20T03:13:57.418Z,-3.60
2019-01-20T03:16:18.611Z,-3.70
2019-01-20T03:18:39.961Z,-3.60
2019-01-20T03:21:01.158Z,-3.60
2019-01-20T03:23:22.348Z,-3.70
2019-01-20T03:25:43.549Z,-3.70
2019-01-20T03:28:04.735Z,-3.70
2019-01-20T03:30:25.942Z,-3.70
2019-01-20T03:32:47.150Z,-3.60
2019-01-20T03:35:09.435Z,-3.50
2019-01-20T03:37:30.638Z,-3.50
2019-01-20T03:39:51.832Z,-3.60
2019-01-20T03:42:13.042Z,-3.50
2019-01-20T03:44:34.237Z,-3.50
2019-01-20T03:46:55.433Z,-3.40
2019-01-20T03:49:16.650Z,-3.40
2019-01-20T03:51:37.845Z,-3.40
2019-01-20T03:53:59.054Z,-3.30
2019-01-20T03:56:20.357Z,-3.40
2019-01-20T03:58:42.763Z,-3.30
2019-01-20T04:01:03.957Z,-3.30
2019-01-20T04:03:25.153Z,-3.30
2019-01-20T04:05:46.349Z,-3.40
2019-01-20T04:08:07.554Z,-3.50
2019-01-20T04:10:28.765Z,-3.40
2019-01-20T04:12:50.095Z,-3.30
2019-01-20T04:15:13.007Z,-3.40
2019-01-20T04:17:34.332Z,-3.40
2019-01-20T04:19:55.538Z,-3.40
2019-01-20T04:22:29.948Z,-3.40
2019-01-20T04:24:51.178Z,-3.20
2019-01-20T04:27:12.389Z,-3.20
2019-01-20T04:29:33.685Z,-3.30
2019-01-20T04:31:54.886Z,-3.20
2019-01-20T04:34:16.109Z,-3.30
2019-01-20T04:36:37.311Z,-3.30
2019-01-20T04:38:58.515Z,-3.20
2019-01-20T04:41:19.700Z,-3.10
2019-01-20T04:43:40.954Z,-3.10
2019-01-20T04:46:02.147Z,-3.00
2019-01-20T04:48:23.465Z,-2.90
2019-01-20T04:50:44.701Z,-3.00
2019-01-20T04:53:06.008Z,-3.00
2019-01-20T04:55:27.191Z,-3.00
2019-01-20T04:57:51.313Z,-3.00
2019-01-20T05:00:15.534Z,-3.10
2019-01-20T05:02:36.866Z,-3.00
2019-01-20T05:04:58.251Z,-3.00
2019-01-20T05:07:19.630Z,-3.00
2019-01-20T05:09:40.839Z,-3.10
2019-01-20T05:12:02.028Z,-3.00
2019-01-20T05:14:23.226Z,-3.10
2019-01-20T05:16:44.444Z,-3.00
2019-01-20T05:19:05.690Z,-3.00
2019-01-20T05:21:26.917Z,-3.00
2019-01-20T05:23:48.139Z,-3.10
2019-01-20T05:26:09.325Z,-3.10
2019-01-20T05:28:30.803Z,-3.10
2019-01-20T05:30:52.008Z,-3.20
2019-01-20T05:33:13.336Z,-3.40
2019-01-20T05:35:34.545Z,-3.40
2019-01-20T05:37:55.741Z,-3.40
2019-01-20T05:40:19.611Z,-3.40
2019-01-20T05:42:45.865Z,-3.30
2019-01-20T05:45:09.061Z,-3.30
2019-01-20T05:47:30.267Z,-3.30
2019-01-20T05:49:51.494Z,-3.50
2019-01-20T05:52:12.721Z,-3.50
2019-01-20T05:54:33.938Z,-3.50
2019-01-20T05:56:55.189Z,-3.50
2019-01-20T05:59:16.388Z,-3.40
2019-01-20T06:01:37.595Z,-3.40
2019-01-20T06:03:58.805Z,-3.50
2019-01-20T06:06:20.000Z,-3.50
2019-01-20T06:08:41.200Z,-3.50
2019-01-20T06:11:02.390Z,-3.60
2019-01-20T06:13:23.583Z,-3.50
2019-01-20T06:15:44.957Z,-3.40
2019-01-20T06:18:06.544Z,-3.40
2019-01-20T06:20:27.725Z,-3.40
2019-01-20T06:22:48.969Z,-3.30
2019-01-20T06:25:10.426Z,-3.40
2019-01-20T06:27:31.621Z,-3.50
2019-01-20T06:29:52.858Z,-3.50
2019-01-20T06:32:14.125Z,-3.40
2019-01-20T06:34:35.327Z,-3.50
2019-01-20T06:36:56.531Z,-3.50
2019-01-20T06:39:17.903Z,-3.40
2019-01-20T06:41:39.226Z,-3.40
2019-01-20T06:44:02.200Z,-3.30
2019-01-20T06:46:23.537Z,-3.20
2019-01-20T06:48:44.897Z,-3.20
2019-01-20T06:51:06.177Z,-3.20
2019-01-20T06:53:27.773Z,-3.20
2019-01-20T06:55:49.067Z,-3.30
2019-01-20T06:58:10.259Z,-3.20
2019-01-20T07:00:31.455Z,-3.20
2019-01-20T07:02:52.801Z,-3.20
2019-01-20T07:05:14.201Z,-3.10
2019-01-20T07:07:35.392Z,-3.10
2019-01-20T07:09:56.604Z,-3.20
2019-01-20T07:12:17.799Z,-3.20
2019-01-20T07:14:39.022Z,-3.30
2019-01-20T07:17:00.223Z,-3.40
2019-01-20T07:19:21.459Z,-3.30
2019-01-20T07:21:42.745Z,-3.50
2019-01-20T07:24:03.938Z,-3.50
2019-01-20T07:26:25.123Z,-3.40
2019-01-20T07:28:46.328Z,-3.40
2019-01-20T07:31:07.543Z,-3.40
2019-01-20T07:33:28.750Z,-3.50
2019-01-20T07:35:50.003Z,-3.50
2019-01-20T07:38:11.191Z,-3.50
2019-01-20T07:40:32.421Z,-3.50
2019-01-20T07:42:53.632Z,-3.40
2019-01-20T07:45:16.074Z,-3.40
2019-01-20T07:47:37.550Z,-3.30
2019-01-20T07:49:59.277Z,-3.30
2019-01-20T07:52:20.755Z,-3.20
2019-01-20T07:54:42.260Z,-3.10
2019-01-20T07:57:03.469Z,-3.10
2019-01-20T07:59:24.771Z,-3.20
2019-01-20T08:01:46.018Z,-3.00
2019-01-20T08:04:07.505Z,-3.10
2019-01-20T08:06:28.746Z,-3.00
2019-01-20T08:08:49.930Z,-2.90
2019-01-20T08:11:11.134Z,-2.80
2019-01-20T08:13:32.325Z,-2.50
2019-01-20T08:15:53.523Z,-2.60
2019-01-20T08:18:14.700Z,-2.70
2019-01-20T08:20:35.908Z,-2.80
2019-01-20T08:22:57.083Z,-2.80
2019-01-20T08:25:18.891Z,-2.80
2019-01-20T08:27:40.130Z,-2.70
2019-01-20T08:30:01.363Z,-2.70
2019-01-20T08:32:22.564Z,-2.70
2019-01-20T08:34:43.748Z,-2.70
2019-01-20T08:37:04.962Z,-2.60
2019-01-20T08:39:26.128Z,-2.50
2019-01-20T08:41:47.336Z,-2.50
2019-01-20T08:44:09.436Z,-2.40
2019-01-20T08:46:34.444Z,-2.60
2019-01-20T08:48:55.624Z,-2.60
2019-01-20T08:51:16.840Z,-2.60
2019-01-20T08:53:38.149Z,-2.50
2019-01-20T08:55:59.348Z,-2.40
2019-01-20T08:58:20.589Z,-2.30
2019-01-20T09:00:41.792Z,-2.30
2019-01-20T09:03:02.980Z,-2.20
2019-01-20T09:05:37.206Z,-2.20
2019-01-20T09:07:59.441Z,-2.30
2019-01-20T09:10:23.245Z,-2.40
2019-01-20T09:12:44.757Z,-2.30
2019-01-20T09:15:06.940Z,-2.20
2019-01-20T09:17:28.121Z,-2.30
2019-01-20T09:19:49.321Z,-2.20
2019-01-20T09:22:21.757Z,-2.30
2019-01-20T09:25:03.232Z,-2.20
2019-01-20T09:27:24.428Z,-2.10
2019-01-20T09:29:45.885Z,-2.00
2019-01-20T09:32:07.115Z,-2.00
2019-01-20T09:34:28.286Z,-2.00
2019-01-20T09:36:49.510Z,-1.90
2019-01-20T09:39:12.014Z,-1.90
2019-01-20T09:41:33.208Z,-2.00
2019-01-20T09:43:54.387Z,-1.90
2019-01-20T09:46:16.349Z,-1.80
2019-01-20T09:48:37.882Z,-1.70
2019-01-20T09:50:59.325Z,-1.70
2019-01-20T09:53:20.526Z,-1.70
2019-01-20T09:55:41.710Z,-1.60
2019-01-20T09:58:02.905Z,-1.50
2019-01-20T10:00:27.591Z,-1.50
2019-01-20T10:02:48.843Z,-1.50
2019-01-20T10:05:10.047Z,-1.40
2019-01-20T10:07:31.544Z,-1.30
2019-01-20T10:09:52.731Z,-1.40
2019-01-20T10:12:13.920Z,-1.30
2019-01-20T10:14:35.112Z,-1.10
2019-01-20T10:16:56.296Z,-1.10
2019-01-20T10:19:18.016Z,-1.10
2019-01-20T10:21:39.220Z,-1.20
2019-01-20T10:24:00.722Z,-1.10
2019-01-20T10:26:22.010Z,-0.90
2019-01-20T10:28:43.213Z,-1.00
2019-01-20T10:31:05.909Z,-1.00
2019-01-20T10:33:27.292Z,-0.80
2019-01-20T10:35:50.387Z,-0.80
2019-01-20T10:38:11.896Z,-0.80
2019-01-20T10:40:33.249Z,-0.90
2019-01-20T10:42:54.461Z,-0.60
2019-01-20T10:45:15.640Z,-0.60
2019-01-20T10:47:36.846Z,-0.50
2019-01-20T10:49:58.025Z,-0.60
2019-01-20T10:52:19.235Z,-0.50
2019-01-20T10:54:46.692Z,-0.60
2019-01-20T10:57:07.961Z,-0.60
2019-01-20T10:59:49.108Z,-0.50
2019-01-20T11:02:10.424Z,-0.70
2019-01-20T11:04:31.741Z,-0.40
2019-01-20T11:06:52.935Z,-0.40
2019-01-20T11:09:14.154Z,-0.40
2019-01-20T11:11:35.341Z,-0.30
2019-01-20T11:13:57.034Z,-0.20
2019-01-20T11:16:18.210Z,0.00
2019-01-20T11:18:39.400Z,-0.10
2019-01-20T11:21:00.606Z,-0.20
2019-01-20T11:23:23.004Z,-0.10
2019-01-20T11:25:44.201Z,-0.10
2019-01-20T11:28:05.409Z,0.10
2019-01-20T11:30:26.592Z,0.20
2019-01-20T11:32:47.805Z,0.20
2019-01-20T11:35:15.890Z,0.20
2019-01-20T11:37:37.094Z,0.10
2019-01-20T11:39:58.282Z,0.40
2019-01-20T11:42:19.512Z,0.60
2019-01-20T11:44:40.792Z,0.80
2019-01-20T11:47:01.975Z,0.80
2019-01-20T11:49:23.182Z,0.50
2019-01-20T11:51:44.391Z,0.30
2019-01-20T11:54:05.613Z,0.30
2019-01-20T11:56:26.804Z,0.50
2019-01-20T11:58:48.084Z,0.50
2019-01-20T12:01:09.275Z,0.60
2019-01-20T12:03:30.473Z,0.60
2019-01-20T12:05:51.870Z,0.80
2019-01-20T12:08:13.174Z,0.90
2019-01-20T12:10:34.398Z,0.90
2019-01-20T12:13:06.194Z,1.00
2019-01-20T12:15:27.366Z,0.80
2019-01-20T12:17:48.551Z,0.80
2019-01-20T12:20:12.211Z,0.80
2019-01-20T12:22:33.449Z,1.00
2019-01-20T12:24:54.652Z,0.90
2019-01-20T12:27:15.877Z,0.80
2019-01-20T12:29:37.094Z,0.80
2019-01-20T12:31:58.316Z,0.80
2019-01-20T12:34:19.527Z,0.80
2019-01-20T12:36:40.726Z,0.90
2019-01-20T12:39:06.132Z,0.80
2019-01-20T12:41:27.315Z,0.80
2019-01-20T12:43:48.571Z,1.00
2019-01-20T12:46:09.860Z,0.90
2019-01-20T12:48:31.093Z,0.90
2019-01-20T12:50:52.321Z,1.00
2019-01-20T12:53:13.506Z,1.10
2019-01-20T12:55:34.724Z,1.00
2019-01-20T12:57:56.129Z,0.90
2019-01-20T13:00:18.439Z,0.90
2019-01-20T13:02:39.627Z,0.90
2019-01-20T13:05:00.927Z,1.00
2019-01-20T13:07:22.462Z,1.00
2019-01-20T13:09:43.916Z,1.20
2019-01-20T13:12:05.142Z,1.20
2019-01-20T13:14:27.871Z,1.10
2019-01-20T13:16:49.690Z,1.00
2019-01-20T13:19:10.893Z,1.10
2019-01-20T13:21:32.112Z,1.10
2019-01-20T13:23:53.325Z,1.10
2019-01-20T13:26:14.508Z,1.10
2019-01-20T13:28:35.984Z,1.10
2019-01-20T13:30:57.162Z,0.90
2019-01-20T13:33:18.452Z,0.90
2019-01-20T13:35:39.654Z,0.80
2019-01-20T13:38:06.583Z,0.70
2019-01-20T13:40:46.058Z,0.70
2019-01-20T13:43:07.325Z,0.70
2019-01-20T13:45:28.835Z,0.80
2019-01-20T13:47:50.225Z,0.70
2019-01-20T13:50:14.680Z,0.70
2019-01-20T13:52:35.977Z,0.70
2019-01-20T13:54:57.194Z,0.80
2019-01-20T13:57:18.376Z,0.80
2019-01-20T13:59:39.620Z,0.80
2019-01-20T14:02:00.923Z,0.80
2019-01-20T14:04:22.396Z,0.90
2019-01-20T14:06:43.610Z,0.80
2019-01-20T14:09:05.303Z,0.80
2019-01-20T14:11:26.622Z,0.80
2019-01-20T14:13:47.950Z,1.00
2019-01-20T14:16:09.144Z,0.80
2019-01-20T14:18:30.344Z,0.90
2019-01-20T14:20:53.657Z,0.90
2019-01-20T14:23:15.106Z,0.80
2019-01-20T14:25:36.320Z,0.60
2019-01-20T14:27:57.854Z,0.70
2019-01-20T14:30:30.529Z,0.80
2019-01-20T14:32:51.947Z,0.80
2019-01-20T14:35:14.509Z,0.70
2019-01-20T14:37:35.710Z,0.80
2019-01-20T14:39:57.317Z,0.80
2019-01-20T14:42:18.505Z,0.80
2019-01-20T14:44:39.736Z,0.80
2019-01-20T14:47:01.258Z,0.70
2019-01-20T14:49:22.510Z,0.80
2019-01-20T14:51:43.697Z,0.80
2019-01-20T14:54:04.952Z,0.60
2019-01-20T14:56:26.140Z,0.70
2019-01-20T14:58:47.324Z,0.70
2019-01-20T15:01:08.540Z,0.70
2019-01-20T15:03:29.725Z,0.70
2019-01-20T15:05:50.943Z,0.70
2019-01-20T15:08:12.166Z,0.70
2019-01-20T15:10:33.404Z,0.60
2019-01-20T15:12:54.587Z,0.60
2019-01-20T15:15:21.832Z,0.50
2019-01-20T15:17:43.010Z,0.50
2019-01-20T15:20:08.309Z,0.50
2019-01-20T15:22:29.561Z,0.60
2019-01-20T15:24:50.795Z,0.70
2019-01-20T15:27:12.251Z,0.80
2019-01-20T15:29:33.555Z,0.90
2019-01-20T15:31:54.747Z,0.70
2019-01-20T15:34:15.957Z,0.70
2019-01-20T15:36:37.171Z,0.50
2019-01-20T15:38:58.382Z,0.60
2019-01-20T15:41:19.996Z,0.60
2019-01-20T15:43:41.210Z,0.60
2019-01-20T15:46:02.403Z,0.60
2019-01-20T15:48:23.798Z,0.60
2019-01-20T15:50:45.429Z,0.50
2019-01-20T15:53:06.654Z,0.50
2019-01-20T15:55:27.875Z,0.50
2019-01-20T15:57:49.185Z,0.40
2019-01-20T16:00:16.389Z,0.50
2019-01-20T16:02:38.000Z,0.50
2019-01-20T16:04:59.260Z,0.50
2019-01-20T16:07:20.445Z,0.40
2019-01-20T16:09:41.656Z,0.40
2019-01-20T16:12:03.103Z,0.40
2019-01-20T16:14:25.118Z,0.40
2019-01-20T16:16:46.513Z,0.30
2019-01-20T16:19:07.724Z,0.40
2019-01-20T16:21:29.232Z,0.40
2019-01-20T16:23:53.392Z,0.40
2019-01-20T16:26:14.945Z,0.40
2019-01-20T16:28:36.512Z,0.40
2019-01-20T16:30:57.715Z,0.40
2019-01-20T16:33:18.898Z,0.30
2019-01-20T16:35:40.135Z,0.30
2019-01-20T16:38:01.930Z,0.40
2019-01-20T16:40:23.724Z,0.40
2019-01-20T16:42:44.912Z,0.40
2019-01-20T16:45:09.820Z,0.50
2019-01-20T16:47:31.008Z,0.50
2019-01-20T16:49:52.215Z,0.50
2019-01-20T16:52:13.402Z,0.40
2019-01-20T16:54:34.651Z,0.50
2019-01-20T16:56:55.872Z,0.40
2019-01-20T16:59:17.146Z,0.40
2019-01-20T17:01:38.373Z,0.40
2019-01-20T17:03:59.653Z,0.40
2019-01-20T17:06:20.865Z,0.50
2019-01-20T17:08:42.086Z,0.50
2019-01-20T17:11:03.572Z,0.60
2019-01-20T17:13:24.769Z,0.50
2019-01-20T17:15:45.952Z,0.50
2019-01-20T17:18:08.868Z,0.50
2019-01-20T17:20:30.076Z,0.50
2019-01-20T17:22:51.285Z,0.60
2019-01-20T17:25:14.300Z,0.50
2019-01-20T17:27:35.527Z,0.40
2019-01-20T17:29:56.718Z,0.50
2019-01-20T17:32:18.264Z,0.40
2019-01-20T17:34:39.444Z,0.50
2019-01-20T17:37:00.653Z,0.50
2019-01-20T17:39:22.096Z,0.50
2019-01-20T17:41:43.443Z,0.50
2019-01-20T17:44:04.741Z,0.50
2019-01-20T17:46:25.930Z,0.50
2019-01-20T17:48:47.346Z,0.50
2019-01-20T17:51:09.544Z,0.50
2019-01-20T17:53:30.753Z,0.40
2019-01-20T17:55:51.953Z,0.40
2019-01-20T17:58:13.156Z,0.40
2019-01-20T18:00:37.751Z,0.50
2019-01-20T18:02:58.977Z,0.50
2019-01-20T18:05:22.540Z,0.50
2019-01-20T18:07:43.748Z,0.50
2019-01-20T18:10:08.580Z,0.50
2019-01-20T18:12:29.791Z,0.50
2019-01-20T18:14:50.973Z,0.50
2019-01-20T18:17:12.173Z,0.50
2019-01-20T18:19:34.233Z,0.50
2019-01-20T18:21:55.515Z,0.50
2019-01-20T18:24:16.878Z,0.50
2019-01-20T18:26:38.066Z,0.50
2019-01-20T18:28:59.491Z,0.40
2019-01-20T18:31:20.824Z,0.40
2019-01-20T18:33:42.128Z,0.50
2019-01-20T18:36:03.448Z,0.60
2019-01-20T18:38:24.790Z,0.50
2019-01-20T18:40:46.161Z,0.40
2019-01-20T18:43:07.387Z,0.40
2019-01-20T18:45:31.695Z,0.30
2019-01-20T18:47:53.128Z,0.30
2019-01-20T18:50:17.815Z,0.30
2019-01-20T18:52:39.157Z,0.30
2019-01-20T18:55:00.356Z,0.20
2019-01-20T18:57:21.698Z,0.30
2019-01-20T18:59:42.889Z,0.30
2019-01-20T19:02:04.085Z,0.30
2019-01-20T19:04:25.276Z,0.30
2019-01-20T19:06:46.460Z,0.30
2019-01-20T19:09:07.654Z,0.20
2019-01-20T19:11:28.853Z,0.10
2019-01-20T19:13:50.107Z,0.20
2019-01-20T19:16:11.605Z,0.30
2019-01-20T19:18:32.818Z,0.20
2019-01-20T19:20:53.997Z,0.10
2019-01-20T19:23:15.216Z,0.10
2019-01-20T19:25:37.514Z,0.20
2019-01-20T19:27:58.700Z,0.20
2019-01-20T19:30:25.805Z,0.10
2019-01-20T19:32:46.993Z,0.20
2019-01-20T19:35:08.278Z,0.20
2019-01-20T19:37:30.177Z,0.20
2019-01-20T19:39:51.418Z,0.30
2019-01-20T19:42:12.618Z,0.10
2019-01-20T19:44:34.702Z,0.10
2019-01-20T19:46:56.075Z,0.10
2019-01-20T19:49:17.451Z,0.20
2019-01-20T19:51:42.318Z,0.10
2019-01-20T19:54:10.140Z,0.40
2019-01-20T19:56:39.600Z,0.20
2019-01-20T19:59:02.968Z,0.00
2019-01-20T20:01:30.547Z,0.10
2019-01-20T20:03:47.615Z,0.10
2019-01-20T20:06:08.901Z,0.10
2019-01-20T20:08:30.233Z,0.00
2019-01-20T20:10:51.431Z,0.10
2019-01-20T20:13:12.662Z,0.10
2019-01-20T20:15:33.862Z,0.00
2019-01-20T20:17:56.409Z,-0.10
2019-01-20T20:20:19.390Z,-0.10
2019-01-20T20:22:40.763Z,-0.10
2019-01-20T20:25:02.898Z,-0.10
2019-01-20T20:27:24.142Z,-0.10
2019-01-20T20:29:45.327Z,0.00
2019-01-20T20:32:06.877Z,-0.10
2019-01-20T20:34:28.786Z,0.00
2019-01-20T20:36:50.178Z,-0.10
2019-01-20T20:39:11.724Z,-0.10
2019-01-20T20:41:33.125Z,-0.20
2019-01-20T20:43:54.423Z,-0.20
2019-01-20T20:46:15.890Z,-0.10
2019-01-20T20:48:38.231Z,-0.20
2019-01-20T20:50:59.460Z,-0.20
2019-01-20T20:53:23.703Z,-0.20
2019-01-20T20:55:45.976Z,-0.20
2019-01-20T20:58:07.767Z,-0.30
2019-01-20T21:00:35.691Z,-0.20
2019-01-20T21:03:00.817Z,-0.30
2019-01-20T21:05:24.023Z,-0.30
2019-01-20T21:07:45.735Z,-0.30
2019-01-20T21:10:15.827Z,-0.20
2019-01-20T21:12:37.093Z,-0.40
2019-01-20T21:15:03.212Z,-0.30
2019-01-20T21:17:21.843Z,-0.50
2019-01-20T21:19:43.318Z,-0.50
2019-01-20T21:22:04.890Z,-0.50
2019-01-20T21:24:31.881Z,-0.50
2019-01-20T21:26:59.530Z,-0.40
2019-01-20T21:29:21.456Z,-0.40
2019-01-20T21:31:43.128Z,-0.50
2019-01-20T21:34:05.083Z,-0.50
2019-01-20T21:36:26.401Z,-0.50
2019-01-20T21:38:47.783Z,-0.50
2019-01-20T21:41:09.141Z,-0.40
2019-01-20T21:43:35.547Z,-0.50
2019-01-20T21:46:00.158Z,-0.60
2019-01-20T21:48:24.535Z,-0.60
2019-01-20T21:50:48.786Z,-0.50
2019-01-20T21:53:17.649Z,-0.60
2019-01-20T21:55:42.887Z,-0.60
2019-01-20T21:58:04.530Z,-0.50
2019-01-20T22:00:28.500Z,-0.50
2019-01-20T22:02:51.305Z,-0.60
2019-01-20T22:05:15.329Z,-0.60
2019-01-20T22:07:36.636Z,-0.70
2019-01-20T22:09:57.863Z,-0.70
2019-01-20T22:12:19.346Z,-0.80
2019-01-20T22:14:40.831Z,-0.70
2019-01-20T22:17:03.002Z,-0.70
2019-01-20T22:19:25.483Z,-0.80
2019-01-20T22:21:47.751Z,-0.80
2019-01-20T22:24:11.649Z,-0.70
2019-01-20T22:26:35.713Z,-0.70
2019-01-20T22:28:57.593Z,-0.80
2019-01-20T22:31:19.232Z,-0.80
2019-01-20T22:33:43.281Z,-0.80
2019-01-20T22:36:11.549Z,-0.90
2019-01-20T22:38:41.571Z,-0.90
2019-01-20T22:41:02.891Z,-0.90
2019-01-20T22:43:27.679Z,-0.90
2019-01-20T22:45:49.176Z,-0.90
2019-01-20T22:48:11.199Z,-1.00
2019-01-20T22:50:38.788Z,-1.10
2019-01-20T22:53:01.039Z,-1.00
2019-01-20T22:55:35.801Z,-1.00
2019-01-20T22:57:58.126Z,-1.00
2019-01-20T23:00:33.973Z,-1.10
2019-01-20T23:02:56.067Z,-1.00
2019-01-20T23:05:17.952Z,-1.00
2019-01-20T23:07:39.394Z,-1.10
2019-01-20T23:10:00.975Z,-1.00
2019-01-20T23:12:22.226Z,-1.00
2019-01-20T23:14:43.567Z,-1.10
2019-01-20T23:17:07.891Z,-1.10
2019-01-20T23:19:28.408Z,-1.10
2019-01-20T23:21:49.870Z,-1.20
2019-01-20T23:24:11.300Z,-1.20
2019-01-20T23:26:32.796Z,-1.30
2019-01-20T23:28:54.249Z,-1.40
2019-01-20T23:31:15.873Z,-1.40
2019-01-20T23:33:37.121Z,-1.40
2019-01-20T23:35:58.403Z,-1.40
2019-01-20T23:38:19.599Z,-1.50
2019-01-20T23:40:41.032Z,-1.50
2019-01-20T23:43:02.225Z,-1.50
2019-01-20T23:45:23.434Z,-1.60
2019-01-20T23:47:49.294Z,-1.60
2019-01-20T23:50:12.586Z,-1.60
2019-01-20T23:52:33.780Z,-1.60
2019-01-20T23:54:56.280Z,-1.70
2019-01-20T23:57:17.606Z,-1.70
2019-01-20T23:59:38.783Z,-1.80
